sensor_id;sensor_type;location;lat;lon;timestamp;temperature;humidity
13707;DHT22;6925;47.816;13.072;2022-08-18T00:00:02;25.20;54.10
13707;DHT22;6925;47.816;13.072;2022-08-18T00:02:29;25.20;54.20
13707;DHT22;6925;47.816;13.072;2022-08-18T00:04:57;25.20;54.30
13707;DHT22;6925;47.816;13.072;2022-08-18T00:07:26;25.10;53.90
13707;DHT22;6925;47.816;13.072;2022-08-18T00:09:54;25.10;54.20
13707;DHT22;6925;47.816;13.072;2022-08-18T00:12:25;25.10;54.30
13707;DHT22;6925;47.816;13.072;2022-08-18T00:14:53;25.10;54.50
13707;DHT22;6925;47.816;13.072;2022-08-18T00:17:23;25.10;55.10
13707;DHT22;6925;47.816;13.072;2022-08-18T00:19:50;25.10;54.50
13707;DHT22;6925;47.816;13.072;2022-08-18T00:22:19;25.10;54.30
13707;DHT22;6925;47.816;13.072;2022-08-18T00:24:49;25.10;54.70
13707;DHT22;6925;47.816;13.072;2022-08-18T00:27:18;25.10;54.70
13707;DHT22;6925;47.816;13.072;2022-08-18T00:29:46;25.00;54.90
13707;DHT22;6925;47.816;13.072;2022-08-18T00:32:14;24.90;55.30
13707;DHT22;6925;47.816;13.072;2022-08-18T00:34:44;24.80;55.70
13707;DHT22;6925;47.816;13.072;2022-08-18T00:37:11;24.80;55.90
13707;DHT22;6925;47.816;13.072;2022-08-18T00:39:39;24.90;56.00
13707;DHT22;6925;47.816;13.072;2022-08-18T00:42:15;24.90;56.10
13707;DHT22;6925;47.816;13.072;2022-08-18T00:44:43;24.90;56.10
13707;DHT22;6925;47.816;13.072;2022-08-18T00:47:19;24.80;56.30
13707;DHT22;6925;47.816;13.072;2022-08-18T00:49:50;24.70;55.40
13707;DHT22;6925;47.816;13.072;2022-08-18T00:52:19;24.80;55.30
13707;DHT22;6925;47.816;13.072;2022-08-18T00:54:49;24.80;55.30
13707;DHT22;6925;47.816;13.072;2022-08-18T00:57:17;24.80;55.20
13707;DHT22;6925;47.816;13.072;2022-08-18T00:59:48;24.80;55.30
13707;DHT22;6925;47.816;13.072;2022-08-18T01:02:20;24.70;55.00
13707;DHT22;6925;47.816;13.072;2022-08-18T01:04:52;24.70;55.10
13707;DHT22;6925;47.816;13.072;2022-08-18T01:07:23;24.70;55.20
13707;DHT22;6925;47.816;13.072;2022-08-18T01:09:56;24.70;55.10
13707;DHT22;6925;47.816;13.072;2022-08-18T01:12:25;24.70;55.50
13707;DHT22;6925;47.816;13.072;2022-08-18T01:14:53;24.60;55.00
13707;DHT22;6925;47.816;13.072;2022-08-18T01:17:21;24.60;55.40
13707;DHT22;6925;47.816;13.072;2022-08-18T01:20:10;24.60;55.30
13707;DHT22;6925;47.816;13.072;2022-08-18T01:23:00;24.60;55.40
13707;DHT22;6925;47.816;13.072;2022-08-18T01:25:31;24.60;55.40
13707;DHT22;6925;47.816;13.072;2022-08-18T01:28:16;24.50;55.30
13707;DHT22;6925;47.816;13.072;2022-08-18T01:30:49;24.50;55.40
13707;DHT22;6925;47.816;13.072;2022-08-18T01:33:18;24.50;55.40
13707;DHT22;6925;47.816;13.072;2022-08-18T01:35:47;24.50;55.50
13707;DHT22;6925;47.816;13.072;2022-08-18T01:38:17;24.50;55.60
13707;DHT22;6925;47.816;13.072;2022-08-18T01:40:45;24.40;55.60
13707;DHT22;6925;47.816;13.072;2022-08-18T01:43:13;24.40;56.00
13707;DHT22;6925;47.816;13.072;2022-08-18T01:45:41;24.30;55.60
13707;DHT22;6925;47.816;13.072;2022-08-18T01:48:09;24.30;55.70
13707;DHT22;6925;47.816;13.072;2022-08-18T01:50:37;24.30;56.00
13707;DHT22;6925;47.816;13.072;2022-08-18T01:53:09;24.30;56.10
13707;DHT22;6925;47.816;13.072;2022-08-18T01:55:40;24.20;56.20
13707;DHT22;6925;47.816;13.072;2022-08-18T01:58:09;24.20;56.40
13707;DHT22;6925;47.816;13.072;2022-08-18T02:00:37;24.20;56.60
13707;DHT22;6925;47.816;13.072;2022-08-18T02:03:10;24.20;56.50
13707;DHT22;6925;47.816;13.072;2022-08-18T02:05:41;24.20;56.40
13707;DHT22;6925;47.816;13.072;2022-08-18T02:08:40;24.20;56.50
13707;DHT22;6925;47.816;13.072;2022-08-18T02:15:01;24.10;56.80
13707;DHT22;6925;47.816;13.072;2022-08-18T02:17:29;24.10;57.00
13707;DHT22;6925;47.816;13.072;2022-08-18T02:20:03;24.10;56.90
13707;DHT22;6925;47.816;13.072;2022-08-18T02:22:32;24.00;56.70
13707;DHT22;6925;47.816;13.072;2022-08-18T02:25:00;23.90;56.90
13707;DHT22;6925;47.816;13.072;2022-08-18T02:27:27;23.90;57.20
13707;DHT22;6925;47.816;13.072;2022-08-18T02:29:55;23.90;57.40
13707;DHT22;6925;47.816;13.072;2022-08-18T02:32:26;23.80;57.60
13707;DHT22;6925;47.816;13.072;2022-08-18T02:34:53;23.80;57.50
13707;DHT22;6925;47.816;13.072;2022-08-18T02:37:21;23.80;57.60
13707;DHT22;6925;47.816;13.072;2022-08-18T02:39:48;23.80;57.80
13707;DHT22;6925;47.816;13.072;2022-08-18T02:42:16;23.80;57.80
13707;DHT22;6925;47.816;13.072;2022-08-18T02:44:43;23.70;57.90
13707;DHT22;6925;47.816;13.072;2022-08-18T02:47:11;23.70;58.10
13707;DHT22;6925;47.816;13.072;2022-08-18T02:49:41;23.70;58.20
13707;DHT22;6925;47.816;13.072;2022-08-18T02:52:08;23.60;58.20
13707;DHT22;6925;47.816;13.072;2022-08-18T02:54:35;23.70;58.30
13707;DHT22;6925;47.816;13.072;2022-08-18T02:57:06;23.60;58.40
13707;DHT22;6925;47.816;13.072;2022-08-18T02:59:38;23.60;58.60
13707;DHT22;6925;47.816;13.072;2022-08-18T03:02:07;23.60;58.60
13707;DHT22;6925;47.816;13.072;2022-08-18T03:04:35;23.50;58.70
13707;DHT22;6925;47.816;13.072;2022-08-18T03:07:06;23.60;58.60
13707;DHT22;6925;47.816;13.072;2022-08-18T03:09:35;23.60;58.80
13707;DHT22;6925;47.816;13.072;2022-08-18T03:12:03;23.60;58.60
13707;DHT22;6925;47.816;13.072;2022-08-18T03:14:32;23.60;58.70
13707;DHT22;6925;47.816;13.072;2022-08-18T03:17:03;23.60;58.80
13707;DHT22;6925;47.816;13.072;2022-08-18T03:19:31;23.50;58.80
13707;DHT22;6925;47.816;13.072;2022-08-18T03:21:59;23.50;58.80
13707;DHT22;6925;47.816;13.072;2022-08-18T03:24:31;23.50;59.00
13707;DHT22;6925;47.816;13.072;2022-08-18T03:26:59;23.50;58.80
13707;DHT22;6925;47.816;13.072;2022-08-18T03:29:27;23.50;59.50
13707;DHT22;6925;47.816;13.072;2022-08-18T03:31:54;23.50;59.00
13707;DHT22;6925;47.816;13.072;2022-08-18T03:34:21;23.40;59.20
13707;DHT22;6925;47.816;13.072;2022-08-18T03:36:50;23.40;59.40
13707;DHT22;6925;47.816;13.072;2022-08-18T03:39:18;23.40;59.10
13707;DHT22;6925;47.816;13.072;2022-08-18T03:41:50;23.30;59.40
13707;DHT22;6925;47.816;13.072;2022-08-18T03:44:19;23.30;59.50
13707;DHT22;6925;47.816;13.072;2022-08-18T03:46:47;23.30;59.60
13707;DHT22;6925;47.816;13.072;2022-08-18T03:49:15;23.30;59.60
13707;DHT22;6925;47.816;13.072;2022-08-18T03:51:44;23.30;59.80
13707;DHT22;6925;47.816;13.072;2022-08-18T03:54:14;23.30;60.00
13707;DHT22;6925;47.816;13.072;2022-08-18T03:56:43;23.30;59.70
13707;DHT22;6925;47.816;13.072;2022-08-18T03:59:15;23.20;60.00
13707;DHT22;6925;47.816;13.072;2022-08-18T04:01:45;23.20;60.10
13707;DHT22;6925;47.816;13.072;2022-08-18T04:04:16;23.20;60.30
13707;DHT22;6925;47.816;13.072;2022-08-18T04:06:46;23.20;60.20
13707;DHT22;6925;47.816;13.072;2022-08-18T04:09:16;23.10;60.30
13707;DHT22;6925;47.816;13.072;2022-08-18T04:11:44;23.20;60.40
13707;DHT22;6925;47.816;13.072;2022-08-18T04:14:19;23.10;60.40
13707;DHT22;6925;47.816;13.072;2022-08-18T04:16:47;23.10;60.70
13707;DHT22;6925;47.816;13.072;2022-08-18T04:19:15;23.10;60.70
13707;DHT22;6925;47.816;13.072;2022-08-18T04:21:44;23.10;60.80
13707;DHT22;6925;47.816;13.072;2022-08-18T04:24:12;23.10;60.90
13707;DHT22;6925;47.816;13.072;2022-08-18T04:26:41;23.10;60.80
13707;DHT22;6925;47.816;13.072;2022-08-18T04:29:11;23.10;61.00
13707;DHT22;6925;47.816;13.072;2022-08-18T04:31:40;23.10;61.20
13707;DHT22;6925;47.816;13.072;2022-08-18T04:34:08;23.10;61.10
13707;DHT22;6925;47.816;13.072;2022-08-18T04:36:39;23.10;61.00
13707;DHT22;6925;47.816;13.072;2022-08-18T04:39:08;23.10;61.20
13707;DHT22;6925;47.816;13.072;2022-08-18T04:41:38;23.10;61.40
13707;DHT22;6925;47.816;13.072;2022-08-18T04:44:08;23.10;61.40
13707;DHT22;6925;47.816;13.072;2022-08-18T04:46:41;23.20;61.60
13707;DHT22;6925;47.816;13.072;2022-08-18T04:49:10;23.20;61.50
13707;DHT22;6925;47.816;13.072;2022-08-18T04:51:40;23.20;61.70
13707;DHT22;6925;47.816;13.072;2022-08-18T04:54:07;23.20;61.60
13707;DHT22;6925;47.816;13.072;2022-08-18T04:56:37;23.20;61.60
13707;DHT22;6925;47.816;13.072;2022-08-18T04:59:09;23.20;61.90
13707;DHT22;6925;47.816;13.072;2022-08-18T05:01:40;23.20;61.80
13707;DHT22;6925;47.816;13.072;2022-08-18T05:04:08;23.20;62.00
13707;DHT22;6925;47.816;13.072;2022-08-18T05:06:38;23.20;61.90
13707;DHT22;6925;47.816;13.072;2022-08-18T05:09:08;23.20;62.10
13707;DHT22;6925;47.816;13.072;2022-08-18T05:11:36;23.30;62.30
13707;DHT22;6925;47.816;13.072;2022-08-18T05:14:06;23.30;62.20
13707;DHT22;6925;47.816;13.072;2022-08-18T05:16:35;23.30;62.40
13707;DHT22;6925;47.816;13.072;2022-08-18T05:19:06;23.30;62.80
13707;DHT22;6925;47.816;13.072;2022-08-18T05:21:35;23.30;63.00
13707;DHT22;6925;47.816;13.072;2022-08-18T05:24:04;23.40;63.00
13707;DHT22;6925;47.816;13.072;2022-08-18T05:26:32;23.40;62.70
13707;DHT22;6925;47.816;13.072;2022-08-18T05:29:00;23.40;63.10
13707;DHT22;6925;47.816;13.072;2022-08-18T05:31:28;23.50;63.00
13707;DHT22;6925;47.816;13.072;2022-08-18T05:33:58;23.50;62.60
13707;DHT22;6925;47.816;13.072;2022-08-18T05:36:42;23.50;62.70
13707;DHT22;6925;47.816;13.072;2022-08-18T05:39:16;23.60;63.20
13707;DHT22;6925;47.816;13.072;2022-08-18T05:41:52;23.60;63.10
13707;DHT22;6925;47.816;13.072;2022-08-18T05:44:24;23.60;63.50
13707;DHT22;6925;47.816;13.072;2022-08-18T05:46:55;23.70;63.70
13707;DHT22;6925;47.816;13.072;2022-08-18T05:49:24;23.80;63.50
13707;DHT22;6925;47.816;13.072;2022-08-18T05:51:57;23.80;63.20
13707;DHT22;6925;47.816;13.072;2022-08-18T05:54:28;23.80;62.70
13707;DHT22;6925;47.816;13.072;2022-08-18T05:57:17;23.90;62.60
13707;DHT22;6925;47.816;13.072;2022-08-18T05:59:46;23.90;62.80
13707;DHT22;6925;47.816;13.072;2022-08-18T06:02:17;24.00;63.10
13707;DHT22;6925;47.816;13.072;2022-08-18T06:04:59;24.00;63.00
13707;DHT22;6925;47.816;13.072;2022-08-18T06:10:42;24.10;62.50
13707;DHT22;6925;47.816;13.072;2022-08-18T06:13:10;24.00;62.80
13707;DHT22;6925;47.816;13.072;2022-08-18T06:15:45;24.00;61.80
13707;DHT22;6925;47.816;13.072;2022-08-18T06:18:28;24.00;61.70
13707;DHT22;6925;47.816;13.072;2022-08-18T06:28:10;24.00;61.30
13707;DHT22;6925;47.816;13.072;2022-08-18T06:30:48;24.10;61.80
13707;DHT22;6925;47.816;13.072;2022-08-18T06:33:33;24.10;61.50
13707;DHT22;6925;47.816;13.072;2022-08-18T06:36:08;24.10;62.50
13707;DHT22;6925;47.816;13.072;2022-08-18T06:38:51;24.20;63.20
13707;DHT22;6925;47.816;13.072;2022-08-18T06:41:46;24.30;63.60
13707;DHT22;6925;47.816;13.072;2022-08-18T06:44:22;24.30;62.70
13707;DHT22;6925;47.816;13.072;2022-08-18T06:46:54;24.30;63.20
13707;DHT22;6925;47.816;13.072;2022-08-18T06:49:36;24.30;61.80
13707;DHT22;6925;47.816;13.072;2022-08-18T06:52:25;24.30;61.40
13707;DHT22;6925;47.816;13.072;2022-08-18T06:54:55;24.20;61.40
13707;DHT22;6925;47.816;13.072;2022-08-18T06:57:30;24.10;61.40
13707;DHT22;6925;47.816;13.072;2022-08-18T07:00:06;24.10;62.00
13707;DHT22;6925;47.816;13.072;2022-08-18T07:02:42;24.10;61.90
13707;DHT22;6925;47.816;13.072;2022-08-18T07:05:26;24.10;62.00
13707;DHT22;6925;47.816;13.072;2022-08-18T07:08:14;24.10;61.40
13707;DHT22;6925;47.816;13.072;2022-08-18T07:10:45;24.10;61.20
13707;DHT22;6925;47.816;13.072;2022-08-18T07:13:17;24.10;61.30
13707;DHT22;6925;47.816;13.072;2022-08-18T07:15:47;24.10;61.30
13707;DHT22;6925;47.816;13.072;2022-08-18T07:18:21;24.00;61.20
13707;DHT22;6925;47.816;13.072;2022-08-18T07:20:50;24.00;61.30
13707;DHT22;6925;47.816;13.072;2022-08-18T07:23:31;23.90;61.20
13707;DHT22;6925;47.816;13.072;2022-08-18T07:26:05;24.00;61.60
13707;DHT22;6925;47.816;13.072;2022-08-18T07:32:01;24.20;63.20
13707;DHT22;6925;47.816;13.072;2022-08-18T07:34:33;24.20;63.20
13707;DHT22;6925;47.816;13.072;2022-08-18T07:37:04;24.30;63.30
13707;DHT22;6925;47.816;13.072;2022-08-18T07:40:04;24.30;62.90
13707;DHT22;6925;47.816;13.072;2022-08-18T07:42:53;24.40;63.30
13707;DHT22;6925;47.816;13.072;2022-08-18T07:45:26;24.50;62.60
13707;DHT22;6925;47.816;13.072;2022-08-18T07:48:01;24.50;61.70
13707;DHT22;6925;47.816;13.072;2022-08-18T07:50:59;24.50;61.50
13707;DHT22;6925;47.816;13.072;2022-08-18T07:53:39;24.40;61.10
13707;DHT22;6925;47.816;13.072;2022-08-18T07:56:14;24.40;61.90
13707;DHT22;6925;47.816;13.072;2022-08-18T07:58:52;24.50;61.60
13707;DHT22;6925;47.816;13.072;2022-08-18T08:01:29;24.50;62.00
13707;DHT22;6925;47.816;13.072;2022-08-18T08:04:07;24.50;62.30
13707;DHT22;6925;47.816;13.072;2022-08-18T08:06:41;24.50;60.40
13707;DHT22;6925;47.816;13.072;2022-08-18T08:09:15;24.40;60.50
13707;DHT22;6925;47.816;13.072;2022-08-18T08:11:50;24.30;61.50
13707;DHT22;6925;47.816;13.072;2022-08-18T08:14:32;24.40;62.20
13707;DHT22;6925;47.816;13.072;2022-08-18T08:17:18;24.60;61.80
13707;DHT22;6925;47.816;13.072;2022-08-18T08:20:03;24.70;61.60
13707;DHT22;6925;47.816;13.072;2022-08-18T08:22:38;24.80;61.50
13707;DHT22;6925;47.816;13.072;2022-08-18T08:25:11;24.90;61.40
13707;DHT22;6925;47.816;13.072;2022-08-18T08:27:54;24.90;61.30
13707;DHT22;6925;47.816;13.072;2022-08-18T08:30:24;24.90;61.60
13707;DHT22;6925;47.816;13.072;2022-08-18T08:33:02;25.00;60.90
13707;DHT22;6925;47.816;13.072;2022-08-18T08:35:39;24.90;60.80
13707;DHT22;6925;47.816;13.072;2022-08-18T08:38:11;24.90;61.00
13707;DHT22;6925;47.816;13.072;2022-08-18T08:40:46;24.90;61.30
13707;DHT22;6925;47.816;13.072;2022-08-18T08:43:22;24.90;61.70
13707;DHT22;6925;47.816;13.072;2022-08-18T08:46:02;24.90;61.30
13707;DHT22;6925;47.816;13.072;2022-08-18T08:48:35;24.90;61.40
13707;DHT22;6925;47.816;13.072;2022-08-18T08:54:01;25.00;61.40
13707;DHT22;6925;47.816;13.072;2022-08-18T08:56:34;25.00;61.50
13707;DHT22;6925;47.816;13.072;2022-08-18T08:59:04;24.90;61.20
13707;DHT22;6925;47.816;13.072;2022-08-18T09:01:40;25.10;61.70
13707;DHT22;6925;47.816;13.072;2022-08-18T09:04:22;25.20;61.80
13707;DHT22;6925;47.816;13.072;2022-08-18T09:07:02;25.30;61.80
13707;DHT22;6925;47.816;13.072;2022-08-18T09:12:48;25.70;61.10
13707;DHT22;6925;47.816;13.072;2022-08-18T09:15:40;25.70;60.70
13707;DHT22;6925;47.816;13.072;2022-08-18T09:18:40;25.70;60.10
13707;DHT22;6925;47.816;13.072;2022-08-18T09:21:23;25.70;60.00
13707;DHT22;6925;47.816;13.072;2022-08-18T09:23:54;25.80;59.70
13707;DHT22;6925;47.816;13.072;2022-08-18T09:26:40;25.90;59.60
13707;DHT22;6925;47.816;13.072;2022-08-18T09:29:18;26.00;59.50
13707;DHT22;6925;47.816;13.072;2022-08-18T09:32:28;26.00;59.20
13707;DHT22;6925;47.816;13.072;2022-08-18T09:34:48;26.10;59.20
13707;DHT22;6925;47.816;13.072;2022-08-18T09:37:21;26.30;58.50
13707;DHT22;6925;47.816;13.072;2022-08-18T09:39:58;26.40;58.40
13707;DHT22;6925;47.816;13.072;2022-08-18T09:42:48;26.50;58.40
13707;DHT22;6925;47.816;13.072;2022-08-18T09:45:44;26.80;57.60
13707;DHT22;6925;47.816;13.072;2022-08-18T09:48:24;26.90;57.80
13707;DHT22;6925;47.816;13.072;2022-08-18T09:54:08;27.20;57.60
13707;DHT22;6925;47.816;13.072;2022-08-18T10:03:22;27.80;55.90
13707;DHT22;6925;47.816;13.072;2022-08-18T10:06:04;27.90;55.50
13707;DHT22;6925;47.816;13.072;2022-08-18T10:08:54;28.00;55.80
13707;DHT22;6925;47.816;13.072;2022-08-18T10:11:40;28.00;54.80
13707;DHT22;6925;47.816;13.072;2022-08-18T10:14:29;28.00;54.40
13707;DHT22;6925;47.816;13.072;2022-08-18T10:17:11;28.00;54.80
13707;DHT22;6925;47.816;13.072;2022-08-18T10:19:50;28.00;54.60
13707;DHT22;6925;47.816;13.072;2022-08-18T10:22:40;28.10;54.60
13707;DHT22;6925;47.816;13.072;2022-08-18T10:25:09;28.20;54.10
13707;DHT22;6925;47.816;13.072;2022-08-18T10:27:51;28.40;53.40
13707;DHT22;6925;47.816;13.072;2022-08-18T10:33:55;28.70;52.40
13707;DHT22;6925;47.816;13.072;2022-08-18T10:36:51;29.00;53.20
13707;DHT22;6925;47.816;13.072;2022-08-18T10:39:21;29.40;53.00
13707;DHT22;6925;47.816;13.072;2022-08-18T10:41:57;29.50;50.60
13707;DHT22;6925;47.816;13.072;2022-08-18T10:44:26;29.60;50.90
13707;DHT22;6925;47.816;13.072;2022-08-18T10:46:57;29.60;50.00
13707;DHT22;6925;47.816;13.072;2022-08-18T10:49:27;29.60;50.50
13707;DHT22;6925;47.816;13.072;2022-08-18T10:52:12;29.60;50.70
13707;DHT22;6925;47.816;13.072;2022-08-18T10:55:08;29.60;49.50
13707;DHT22;6925;47.816;13.072;2022-08-18T11:00:55;29.60;50.00
13707;DHT22;6925;47.816;13.072;2022-08-18T11:03:59;29.80;49.60
13707;DHT22;6925;47.816;13.072;2022-08-18T11:06:35;29.90;49.60
13707;DHT22;6925;47.816;13.072;2022-08-18T11:09:05;29.80;48.70
13707;DHT22;6925;47.816;13.072;2022-08-18T11:11:34;29.60;48.80
13707;DHT22;6925;47.816;13.072;2022-08-18T11:14:50;29.60;49.60
13707;DHT22;6925;47.816;13.072;2022-08-18T11:17:32;29.70;49.90
13707;DHT22;6925;47.816;13.072;2022-08-18T11:20:05;29.80;49.60
13707;DHT22;6925;47.816;13.072;2022-08-18T11:22:35;29.70;49.80
13707;DHT22;6925;47.816;13.072;2022-08-18T11:25:21;29.70;50.30
13707;DHT22;6925;47.816;13.072;2022-08-18T11:27:49;29.60;50.20
13707;DHT22;6925;47.816;13.072;2022-08-18T11:30:16;29.60;50.00
13707;DHT22;6925;47.816;13.072;2022-08-18T11:35:54;29.40;50.00
13707;DHT22;6925;47.816;13.072;2022-08-18T11:38:24;29.30;51.00
13707;DHT22;6925;47.816;13.072;2022-08-18T11:41:10;29.30;51.20
13707;DHT22;6925;47.816;13.072;2022-08-18T11:43:38;29.30;50.90
13707;DHT22;6925;47.816;13.072;2022-08-18T11:46:20;29.30;50.50
13707;DHT22;6925;47.816;13.072;2022-08-18T11:48:49;29.20;51.00
13707;DHT22;6925;47.816;13.072;2022-08-18T11:51:20;29.20;51.20
13707;DHT22;6925;47.816;13.072;2022-08-18T11:53:53;29.30;51.90
13707;DHT22;6925;47.816;13.072;2022-08-18T11:56:25;29.40;51.80
13707;DHT22;6925;47.816;13.072;2022-08-18T11:58:55;29.50;51.20
13707;DHT22;6925;47.816;13.072;2022-08-18T12:01:35;29.50;50.90
13707;DHT22;6925;47.816;13.072;2022-08-18T12:04:16;29.60;51.00
13707;DHT22;6925;47.816;13.072;2022-08-18T12:06:59;29.80;51.10
13707;DHT22;6925;47.816;13.072;2022-08-18T12:09:34;29.90;50.90
13707;DHT22;6925;47.816;13.072;2022-08-18T12:12:06;30.00;50.00
13707;DHT22;6925;47.816;13.072;2022-08-18T12:14:51;30.00;49.70
13707;DHT22;6925;47.816;13.072;2022-08-18T12:17:18;30.20;49.80
13707;DHT22;6925;47.816;13.072;2022-08-18T12:19:45;30.30;50.10
13707;DHT22;6925;47.816;13.072;2022-08-18T12:22:15;30.40;50.40
13707;DHT22;6925;47.816;13.072;2022-08-18T12:24:43;30.50;50.20
13707;DHT22;6925;47.816;13.072;2022-08-18T12:27:13;30.60;50.10
13707;DHT22;6925;47.816;13.072;2022-08-18T12:29:41;30.70;49.20
13707;DHT22;6925;47.816;13.072;2022-08-18T12:32:12;30.70;49.40
13707;DHT22;6925;47.816;13.072;2022-08-18T12:34:39;30.90;50.20
13707;DHT22;6925;47.816;13.072;2022-08-18T12:37:08;31.00;49.50
13707;DHT22;6925;47.816;13.072;2022-08-18T12:39:36;31.00;49.30
13707;DHT22;6925;47.816;13.072;2022-08-18T12:42:04;31.00;48.10
13707;DHT22;6925;47.816;13.072;2022-08-18T12:44:33;30.90;47.50
13707;DHT22;6925;47.816;13.072;2022-08-18T12:47:01;30.80;48.00
13707;DHT22;6925;47.816;13.072;2022-08-18T12:49:28;30.70;48.00
13707;DHT22;6925;47.816;13.072;2022-08-18T12:51:55;30.60;47.50
13707;DHT22;6925;47.816;13.072;2022-08-18T12:54:23;30.50;47.60
13707;DHT22;6925;47.816;13.072;2022-08-18T12:56:53;30.30;47.60
13707;DHT22;6925;47.816;13.072;2022-08-18T12:59:25;30.20;47.80
13707;DHT22;6925;47.816;13.072;2022-08-18T13:01:54;30.00;47.90
13707;DHT22;6925;47.816;13.072;2022-08-18T13:04:22;30.00;48.30
13707;DHT22;6925;47.816;13.072;2022-08-18T13:06:53;29.90;48.20
13707;DHT22;6925;47.816;13.072;2022-08-18T13:09:22;29.90;48.10
13707;DHT22;6925;47.816;13.072;2022-08-18T13:11:49;29.80;48.40
13707;DHT22;6925;47.816;13.072;2022-08-18T13:14:17;29.70;48.50
13707;DHT22;6925;47.816;13.072;2022-08-18T13:16:50;29.60;48.30
13707;DHT22;6925;47.816;13.072;2022-08-18T13:19:28;29.50;48.50
13707;DHT22;6925;47.816;13.072;2022-08-18T13:22:04;29.40;48.60
13707;DHT22;6925;47.816;13.072;2022-08-18T13:24:32;29.30;48.70
13707;DHT22;6925;47.816;13.072;2022-08-18T13:26:59;29.10;48.90
13707;DHT22;6925;47.816;13.072;2022-08-18T13:29:28;28.90;49.00
13707;DHT22;6925;47.816;13.072;2022-08-18T13:31:56;28.70;49.40
13707;DHT22;6925;47.816;13.072;2022-08-18T13:34:26;28.70;49.60
13707;DHT22;6925;47.816;13.072;2022-08-18T13:36:54;28.60;49.90
13707;DHT22;6925;47.816;13.072;2022-08-18T13:39:23;28.50;50.00
13707;DHT22;6925;47.816;13.072;2022-08-18T13:41:52;28.50;50.10
13707;DHT22;6925;47.816;13.072;2022-08-18T13:44:21;28.40;50.40
13707;DHT22;6925;47.816;13.072;2022-08-18T13:46:49;28.30;50.60
13707;DHT22;6925;47.816;13.072;2022-08-18T13:49:20;28.20;51.20
13707;DHT22;6925;47.816;13.072;2022-08-18T13:51:53;28.20;51.30
13707;DHT22;6925;47.816;13.072;2022-08-18T13:54:25;28.20;51.80
13707;DHT22;6925;47.816;13.072;2022-08-18T13:57:02;28.10;52.50
13707;DHT22;6925;47.816;13.072;2022-08-18T13:59:33;28.10;53.20
13707;DHT22;6925;47.816;13.072;2022-08-18T14:02:03;28.10;54.20
13707;DHT22;6925;47.816;13.072;2022-08-18T14:04:31;28.10;53.30
13707;DHT22;6925;47.816;13.072;2022-08-18T14:06:59;28.00;52.20
13707;DHT22;6925;47.816;13.072;2022-08-18T14:09:27;27.90;51.40
13707;DHT22;6925;47.816;13.072;2022-08-18T14:11:55;27.90;51.50
13707;DHT22;6925;47.816;13.072;2022-08-18T14:14:24;27.80;51.10
13707;DHT22;6925;47.816;13.072;2022-08-18T14:16:51;27.70;51.00
13707;DHT22;6925;47.816;13.072;2022-08-18T14:19:19;27.70;51.60
13707;DHT22;6925;47.816;13.072;2022-08-18T14:22:05;27.60;52.30
13707;DHT22;6925;47.816;13.072;2022-08-18T14:24:50;27.40;52.70
13707;DHT22;6925;47.816;13.072;2022-08-18T14:27:37;27.20;53.00
13707;DHT22;6925;47.816;13.072;2022-08-18T14:30:07;27.20;54.10
13707;DHT22;6925;47.816;13.072;2022-08-18T14:32:35;27.30;54.50
13707;DHT22;6925;47.816;13.072;2022-08-18T14:35:05;27.30;52.80
13707;DHT22;6925;47.816;13.072;2022-08-18T14:37:36;27.40;52.50
13707;DHT22;6925;47.816;13.072;2022-08-18T14:40:05;27.40;52.30
13707;DHT22;6925;47.816;13.072;2022-08-18T14:42:33;27.40;52.80
13707;DHT22;6925;47.816;13.072;2022-08-18T14:45:01;27.30;52.60
13707;DHT22;6925;47.816;13.072;2022-08-18T14:47:28;27.40;53.40
13707;DHT22;6925;47.816;13.072;2022-08-18T14:49:55;27.40;53.50
13707;DHT22;6925;47.816;13.072;2022-08-18T14:52:24;27.40;53.40
13707;DHT22;6925;47.816;13.072;2022-08-18T14:54:53;27.40;53.20
13707;DHT22;6925;47.816;13.072;2022-08-18T14:57:21;27.50;53.30
13707;DHT22;6925;47.816;13.072;2022-08-18T14:59:48;27.50;53.60
13707;DHT22;6925;47.816;13.072;2022-08-18T15:02:15;27.70;53.60
13707;DHT22;6925;47.816;13.072;2022-08-18T15:04:43;27.70;52.80
13707;DHT22;6925;47.816;13.072;2022-08-18T15:07:11;27.70;52.80
13707;DHT22;6925;47.816;13.072;2022-08-18T15:09:39;27.80;52.80
13707;DHT22;6925;47.816;13.072;2022-08-18T15:12:08;27.80;52.70
13707;DHT22;6925;47.816;13.072;2022-08-18T15:14:35;27.80;52.10
13707;DHT22;6925;47.816;13.072;2022-08-18T15:17:04;27.70;52.60
13707;DHT22;6925;47.816;13.072;2022-08-18T15:19:33;27.80;53.80
13707;DHT22;6925;47.816;13.072;2022-08-18T15:22:00;27.90;52.90
13707;DHT22;6925;47.816;13.072;2022-08-18T15:24:45;27.90;52.80
13707;DHT22;6925;47.816;13.072;2022-08-18T15:27:32;28.00;53.30
13707;DHT22;6925;47.816;13.072;2022-08-18T15:30:05;28.10;53.80
13707;DHT22;6925;47.816;13.072;2022-08-18T15:32:33;28.20;55.00
13707;DHT22;6925;47.816;13.072;2022-08-18T15:35:01;28.40;54.30
13707;DHT22;6925;47.816;13.072;2022-08-18T15:37:28;28.50;54.30
13707;DHT22;6925;47.816;13.072;2022-08-18T15:40:02;28.60;53.80
13707;DHT22;6925;47.816;13.072;2022-08-18T15:42:42;28.70;53.30
13707;DHT22;6925;47.816;13.072;2022-08-18T15:45:21;28.90;52.60
13707;DHT22;6925;47.816;13.072;2022-08-18T15:47:50;28.90;51.80
13707;DHT22;6925;47.816;13.072;2022-08-18T15:50:19;29.00;51.00
13707;DHT22;6925;47.816;13.072;2022-08-18T15:52:47;28.90;51.00
13707;DHT22;6925;47.816;13.072;2022-08-18T15:55:17;29.00;52.10
13707;DHT22;6925;47.816;13.072;2022-08-18T15:57:47;29.10;52.90
13707;DHT22;6925;47.816;13.072;2022-08-18T16:00:16;29.20;52.50
13707;DHT22;6925;47.816;13.072;2022-08-18T16:02:48;29.20;52.90
13707;DHT22;6925;47.816;13.072;2022-08-18T16:05:16;29.30;52.70
13707;DHT22;6925;47.816;13.072;2022-08-18T16:07:46;29.40;52.20
13707;DHT22;6925;47.816;13.072;2022-08-18T16:10:15;29.40;51.60
13707;DHT22;6925;47.816;13.072;2022-08-18T16:12:42;29.50;51.80
13707;DHT22;6925;47.816;13.072;2022-08-18T16:15:13;29.40;49.30
13707;DHT22;6925;47.816;13.072;2022-08-18T16:17:41;29.40;48.50
13707;DHT22;6925;47.816;13.072;2022-08-18T16:20:09;29.30;49.40
13707;DHT22;6925;47.816;13.072;2022-08-18T16:22:37;29.30;49.50
13707;DHT22;6925;47.816;13.072;2022-08-18T16:25:05;29.30;48.50
13707;DHT22;6925;47.816;13.072;2022-08-18T16:27:33;29.20;48.80
13707;DHT22;6925;47.816;13.072;2022-08-18T16:30:01;29.20;49.10
13707;DHT22;6925;47.816;13.072;2022-08-18T16:32:30;29.10;48.50
13707;DHT22;6925;47.816;13.072;2022-08-18T16:34:58;29.10;48.40
13707;DHT22;6925;47.816;13.072;2022-08-18T16:37:27;29.00;48.90
13707;DHT22;6925;47.816;13.072;2022-08-18T16:39:54;29.00;49.00
13707;DHT22;6925;47.816;13.072;2022-08-18T16:42:21;29.00;48.50
13707;DHT22;6925;47.816;13.072;2022-08-18T16:44:49;28.90;48.70
13707;DHT22;6925;47.816;13.072;2022-08-18T16:47:16;28.90;48.90